sensor_id;sensor_type;location;lat;lon;timestamp;P1;durP1;ratioP1;P2;durP2;ratioP2
57247;SDS011;55809;46.618;10.764;2023-07-24T00:01:09;7.80;;;4.00;;
57247;SDS011;55809;46.618;10.764;2023-07-24T00:03:36;8.68;;;3.50;;
57247;SDS011;55809;46.618;10.764;2023-07-24T00:06:03;7.97;;;3.20;;
57247;SDS011;55809;46.618;10.764;2023-07-24T00:08:30;9.63;;;3.78;;
57247;SDS011;55809;46.618;10.764;2023-07-24T00:10:59;9.52;;;3.10;;
57247;SDS011;55809;46.618;10.764;2023-07-24T00:13:28;8.10;;;3.42;;
57247;SDS011;55809;46.618;10.764;2023-07-24T00:15:55;7.70;;;3.63;;
57247;SDS011;55809;46.618;10.764;2023-07-24T00:18:23;8.88;;;3.10;;
57247;SDS011;55809;46.618;10.764;2023-07-24T00:20:50;11.75;;;4.10;;
57247;SDS011;55809;46.618;10.764;2023-07-24T00:23:17;11.70;;;3.45;;
57247;SDS011;55809;46.618;10.764;2023-07-24T00:25:44;9.93;;;4.53;;
57247;SDS011;55809;46.618;10.764;2023-07-24T00:28:12;8.65;;;3.75;;
57247;SDS011;55809;46.618;10.764;2023-07-24T00:30:39;6.85;;;2.92;;
57247;SDS011;55809;46.618;10.764;2023-07-24T00:33:06;9.35;;;3.25;;
57247;SDS011;55809;46.618;10.764;2023-07-24T00:35:33;8.40;;;3.80;;
57247;SDS011;55809;46.618;10.764;2023-07-24T00:38:00;8.63;;;3.72;;
57247;SDS011;55809;46.618;10.764;2023-07-24T00:40:27;8.02;;;3.95;;
57247;SDS011;55809;46.618;10.764;2023-07-24T00:42:54;11.90;;;3.97;;
57247;SDS011;55809;46.618;10.764;2023-07-24T00:45:23;9.23;;;4.07;;
57247;SDS011;55809;46.618;10.764;2023-07-24T00:47:50;8.25;;;3.40;;
57247;SDS011;55809;46.618;10.764;2023-07-24T00:50:18;7.70;;;3.97;;
57247;SDS011;55809;46.618;10.764;2023-07-24T00:52:45;6.72;;;3.40;;
57247;SDS011;55809;46.618;10.764;2023-07-24T00:55:13;8.27;;;3.58;;
57247;SDS011;55809;46.618;10.764;2023-07-24T00:57:42;9.50;;;3.95;;
57247;SDS011;55809;46.618;10.764;2023-07-24T01:00:10;9.45;;;3.58;;
57247;SDS011;55809;46.618;10.764;2023-07-24T01:02:39;7.75;;;3.85;;
57247;SDS011;55809;46.618;10.764;2023-07-24T01:05:06;10.20;;;3.95;;
57247;SDS011;55809;46.618;10.764;2023-07-24T01:07:35;7.60;;;3.35;;
57247;SDS011;55809;46.618;10.764;2023-07-24T01:10:02;7.80;;;3.17;;
57247;SDS011;55809;46.618;10.764;2023-07-24T01:12:31;7.75;;;3.63;;
57247;SDS011;55809;46.618;10.764;2023-07-24T01:15:04;8.10;;;3.67;;
57247;SDS011;55809;46.618;10.764;2023-07-24T01:17:38;9.52;;;4.20;;
57247;SDS011;55809;46.618;10.764;2023-07-24T01:20:12;8.65;;;4.32;;
57247;SDS011;55809;46.618;10.764;2023-07-24T01:22:45;6.55;;;3.17;;
57247;SDS011;55809;46.618;10.764;2023-07-24T01:25:23;8.65;;;3.60;;
57247;SDS011;55809;46.618;10.764;2023-07-24T01:27:58;10.70;;;4.22;;
57247;SDS011;55809;46.618;10.764;2023-07-24T01:30:25;10.00;;;3.92;;
57247;SDS011;55809;46.618;10.764;2023-07-24T01:32:52;7.60;;;3.60;;
57247;SDS011;55809;46.618;10.764;2023-07-24T01:35:19;7.53;;;3.72;;
57247;SDS011;55809;46.618;10.764;2023-07-24T01:37:47;9.02;;;4.00;;
57247;SDS011;55809;46.618;10.764;2023-07-24T01:40:15;8.13;;;3.78;;
57247;SDS011;55809;46.618;10.764;2023-07-24T01:42:43;9.15;;;3.92;;
57247;SDS011;55809;46.618;10.764;2023-07-24T01:45:11;10.35;;;3.92;;
57247;SDS011;55809;46.618;10.764;2023-07-24T01:47:38;11.45;;;4.60;;
57247;SDS011;55809;46.618;10.764;2023-07-24T01:50:06;9.98;;;3.97;;
57247;SDS011;55809;46.618;10.764;2023-07-24T01:52:33;7.43;;;3.22;;
57247;SDS011;55809;46.618;10.764;2023-07-24T01:55:00;11.25;;;4.03;;
57247;SDS011;55809;46.618;10.764;2023-07-24T01:57:28;8.55;;;3.80;;
57247;SDS011;55809;46.618;10.764;2023-07-24T01:59:55;11.27;;;4.03;;
57247;SDS011;55809;46.618;10.764;2023-07-24T02:02:23;9.95;;;4.03;;
57247;SDS011;55809;46.618;10.764;2023-07-24T02:04:50;8.68;;;3.78;;
57247;SDS011;55809;46.618;10.764;2023-07-24T02:07:18;9.07;;;3.28;;
57247;SDS011;55809;46.618;10.764;2023-07-24T02:09:44;9.05;;;3.80;;
57247;SDS011;55809;46.618;10.764;2023-07-24T02:12:11;11.10;;;4.35;;
57247;SDS011;55809;46.618;10.764;2023-07-24T02:14:38;7.53;;;3.53;;
57247;SDS011;55809;46.618;10.764;2023-07-24T02:17:05;8.23;;;3.80;;
57247;SDS011;55809;46.618;10.764;2023-07-24T02:19:34;6.88;;;3.05;;
57247;SDS011;55809;46.618;10.764;2023-07-24T02:22:01;7.95;;;3.50;;
57247;SDS011;55809;46.618;10.764;2023-07-24T02:24:28;10.80;;;3.75;;
57247;SDS011;55809;46.618;10.764;2023-07-24T02:26:55;9.07;;;3.70;;
57247;SDS011;55809;46.618;10.764;2023-07-24T02:29:22;9.30;;;4.40;;
57247;SDS011;55809;46.618;10.764;2023-07-24T02:31:49;9.93;;;3.80;;
57247;SDS011;55809;46.618;10.764;2023-07-24T02:34:17;6.88;;;3.10;;
57247;SDS011;55809;46.618;10.764;2023-07-24T02:36:45;8.13;;;3.25;;
57247;SDS011;55809;46.618;10.764;2023-07-24T02:39:12;10.93;;;4.50;;
57247;SDS011;55809;46.618;10.764;2023-07-24T02:41:39;6.85;;;3.78;;
57247;SDS011;55809;46.618;10.764;2023-07-24T02:44:06;11.50;;;3.35;;
57247;SDS011;55809;46.618;10.764;2023-07-24T02:46:33;8.80;;;3.97;;
57247;SDS011;55809;46.618;10.764;2023-07-24T02:49:00;8.18;;;3.42;;
57247;SDS011;55809;46.618;10.764;2023-07-24T02:51:27;8.73;;;4.10;;
57247;SDS011;55809;46.618;10.764;2023-07-24T02:53:55;9.10;;;3.88;;
57247;SDS011;55809;46.618;10.764;2023-07-24T02:56:23;11.00;;;3.97;;
57247;SDS011;55809;46.618;10.764;2023-07-24T02:58:50;8.48;;;4.10;;
57247;SDS011;55809;46.618;10.764;2023-07-24T03:01:17;7.63;;;3.60;;
57247;SDS011;55809;46.618;10.764;2023-07-24T03:03:43;9.32;;;4.60;;
57247;SDS011;55809;46.618;10.764;2023-07-24T03:06:10;10.88;;;4.63;;
57247;SDS011;55809;46.618;10.764;2023-07-24T03:08:37;13.52;;;4.28;;
57247;SDS011;55809;46.618;10.764;2023-07-24T03:11:06;8.60;;;4.15;;
57247;SDS011;55809;46.618;10.764;2023-07-24T03:13:33;9.60;;;4.03;;
57247;SDS011;55809;46.618;10.764;2023-07-24T03:16:00;11.48;;;4.25;;
57247;SDS011;55809;46.618;10.764;2023-07-24T03:18:27;10.18;;;3.58;;
57247;SDS011;55809;46.618;10.764;2023-07-24T03:20:56;9.98;;;4.00;;
57247;SDS011;55809;46.618;10.764;2023-07-24T03:23:24;10.63;;;4.10;;
57247;SDS011;55809;46.618;10.764;2023-07-24T03:25:51;8.15;;;3.55;;
57247;SDS011;55809;46.618;10.764;2023-07-24T03:28:19;8.38;;;3.85;;
57247;SDS011;55809;46.618;10.764;2023-07-24T03:30:46;10.45;;;3.70;;
57247;SDS011;55809;46.618;10.764;2023-07-24T03:33:14;12.48;;;4.78;;
57247;SDS011;55809;46.618;10.764;2023-07-24T03:35:41;9.30;;;4.18;;
57247;SDS011;55809;46.618;10.764;2023-07-24T03:38:08;7.30;;;3.33;;
57247;SDS011;55809;46.618;10.764;2023-07-24T03:40:34;10.05;;;3.45;;
57247;SDS011;55809;46.618;10.764;2023-07-24T03:43:01;8.57;;;3.88;;
57247;SDS011;55809;46.618;10.764;2023-07-24T03:45:30;6.15;;;2.92;;
57247;SDS011;55809;46.618;10.764;2023-07-24T03:47:57;7.88;;;3.50;;
57247;SDS011;55809;46.618;10.764;2023-07-24T03:50:24;10.48;;;4.60;;
57247;SDS011;55809;46.618;10.764;2023-07-24T03:52:51;9.60;;;3.90;;
57247;SDS011;55809;46.618;10.764;2023-07-24T03:55:18;9.80;;;3.80;;
57247;SDS011;55809;46.618;10.764;2023-07-24T03:57:45;11.15;;;3.72;;
57247;SDS011;55809;46.618;10.764;2023-07-24T04:00:12;9.93;;;3.50;;
57247;SDS011;55809;46.618;10.764;2023-07-24T04:02:41;10.65;;;4.40;;
57247;SDS011;55809;46.618;10.764;2023-07-24T04:05:08;8.95;;;3.70;;
57247;SDS011;55809;46.618;10.764;2023-07-24T04:07:36;9.43;;;4.35;;
57247;SDS011;55809;46.618;10.764;2023-07-24T04:10:03;8.25;;;3.75;;
57247;SDS011;55809;46.618;10.764;2023-07-24T04:12:31;10.05;;;4.30;;
57247;SDS011;55809;46.618;10.764;2023-07-24T04:14:58;8.10;;;3.10;;
57247;SDS011;55809;46.618;10.764;2023-07-24T04:17:25;10.45;;;4.03;;
57247;SDS011;55809;46.618;10.764;2023-07-24T04:19:54;8.35;;;3.78;;
57247;SDS011;55809;46.618;10.764;2023-07-24T04:22:20;9.95;;;3.97;;
57247;SDS011;55809;46.618;10.764;2023-07-24T04:24:47;9.50;;;3.50;;
57247;SDS011;55809;46.618;10.764;2023-07-24T04:27:14;9.68;;;3.80;;
57247;SDS011;55809;46.618;10.764;2023-07-24T04:29:41;8.35;;;3.50;;
57247;SDS011;55809;46.618;10.764;2023-07-24T04:32:08;9.65;;;4.70;;
57247;SDS011;55809;46.618;10.764;2023-07-24T04:34:35;8.82;;;3.72;;
57247;SDS011;55809;46.618;10.764;2023-07-24T04:37:04;6.88;;;3.88;;
57247;SDS011;55809;46.618;10.764;2023-07-24T04:39:31;10.23;;;4.18;;
57247;SDS011;55809;46.618;10.764;2023-07-24T04:41:58;10.82;;;4.30;;
57247;SDS011;55809;46.618;10.764;2023-07-24T04:44:25;8.82;;;3.97;;
57247;SDS011;55809;46.618;10.764;2023-07-24T04:46:52;7.90;;;4.03;;
57247;SDS011;55809;46.618;10.764;2023-07-24T04:49:22;8.43;;;4.25;;
57247;SDS011;55809;46.618;10.764;2023-07-24T04:51:51;8.90;;;3.88;;
57247;SDS011;55809;46.618;10.764;2023-07-24T04:54:22;6.40;;;3.40;;
57247;SDS011;55809;46.618;10.764;2023-07-24T04:56:50;9.82;;;4.18;;
57247;SDS011;55809;46.618;10.764;2023-07-24T04:59:17;9.70;;;4.32;;
57247;SDS011;55809;46.618;10.764;2023-07-24T05:01:44;9.48;;;4.38;;
57247;SDS011;55809;46.618;10.764;2023-07-24T05:04:13;8.98;;;5.05;;
57247;SDS011;55809;46.618;10.764;2023-07-24T05:06:40;14.70;;;5.82;;
57247;SDS011;55809;46.618;10.764;2023-07-24T05:09:08;8.70;;;4.00;;
57247;SDS011;55809;46.618;10.764;2023-07-24T05:11:37;9.93;;;4.32;;
57247;SDS011;55809;46.618;10.764;2023-07-24T05:14:04;9.05;;;4.63;;
57247;SDS011;55809;46.618;10.764;2023-07-24T05:16:34;13.20;;;4.97;;
57247;SDS011;55809;46.618;10.764;2023-07-24T05:21:35;7.70;;;4.20;;
57247;SDS011;55809;46.618;10.764;2023-07-24T05:24:02;8.68;;;4.15;;
57247;SDS011;55809;46.618;10.764;2023-07-24T05:26:30;18.33;;;6.18;;
57247;SDS011;55809;46.618;10.764;2023-07-24T05:28:58;11.93;;;5.25;;
57247;SDS011;55809;46.618;10.764;2023-07-24T05:31:26;14.18;;;4.80;;
57247;SDS011;55809;46.618;10.764;2023-07-24T05:33:53;12.30;;;4.78;;
57247;SDS011;55809;46.618;10.764;2023-07-24T05:36:20;12.73;;;4.80;;
57247;SDS011;55809;46.618;10.764;2023-07-24T05:38:46;8.10;;;3.50;;
57247;SDS011;55809;46.618;10.764;2023-07-24T05:41:15;13.32;;;4.43;;
57247;SDS011;55809;46.618;10.764;2023-07-24T05:46:13;10.20;;;6.80;;
57247;SDS011;55809;46.618;10.764;2023-07-24T05:48:44;9.65;;;5.28;;
57247;SDS011;55809;46.618;10.764;2023-07-24T05:51:12;9.75;;;4.47;;
57247;SDS011;55809;46.618;10.764;2023-07-24T05:53:43;12.25;;;4.53;;
57247;SDS011;55809;46.618;10.764;2023-07-24T05:56:11;10.07;;;4.93;;
57247;SDS011;55809;46.618;10.764;2023-07-24T05:58:40;11.48;;;5.15;;
57247;SDS011;55809;46.618;10.764;2023-07-24T06:01:07;11.00;;;4.45;;
57247;SDS011;55809;46.618;10.764;2023-07-24T06:03:50;11.55;;;4.80;;
57247;SDS011;55809;46.618;10.764;2023-07-24T06:06:18;9.23;;;4.72;;
57247;SDS011;55809;46.618;10.764;2023-07-24T06:08:47;12.17;;;5.00;;
57247;SDS011;55809;46.618;10.764;2023-07-24T06:11:18;11.50;;;5.47;;
57247;SDS011;55809;46.618;10.764;2023-07-24T06:13:49;10.88;;;5.43;;
57247;SDS011;55809;46.618;10.764;2023-07-24T06:16:17;11.40;;;5.43;;
57247;SDS011;55809;46.618;10.764;2023-07-24T06:18:51;10.48;;;4.70;;
57247;SDS011;55809;46.618;10.764;2023-07-24T06:21:19;11.90;;;4.85;;
57247;SDS011;55809;46.618;10.764;2023-07-24T06:23:48;12.00;;;4.78;;
57247;SDS011;55809;46.618;10.764;2023-07-24T06:26:16;9.30;;;5.65;;
57247;SDS011;55809;46.618;10.764;2023-07-24T06:28:44;11.90;;;5.05;;
57247;SDS011;55809;46.618;10.764;2023-07-24T06:31:12;9.93;;;4.55;;
57247;SDS011;55809;46.618;10.764;2023-07-24T06:33:39;12.55;;;5.30;;
57247;SDS011;55809;46.618;10.764;2023-07-24T06:36:10;8.15;;;4.05;;
57247;SDS011;55809;46.618;10.764;2023-07-24T06:38:37;7.82;;;4.38;;
57247;SDS011;55809;46.618;10.764;2023-07-24T06:41:07;8.23;;;4.45;;
57247;SDS011;55809;46.618;10.764;2023-07-24T06:43:34;9.60;;;4.18;;
57247;SDS011;55809;46.618;10.764;2023-07-24T06:46:03;9.95;;;4.68;;
57247;SDS011;55809;46.618;10.764;2023-07-24T06:48:32;11.93;;;5.07;;
57247;SDS011;55809;46.618;10.764;2023-07-24T06:51:02;11.00;;;4.55;;
57247;SDS011;55809;46.618;10.764;2023-07-24T06:53:32;10.07;;;4.72;;
57247;SDS011;55809;46.618;10.764;2023-07-24T06:56:01;9.02;;;4.93;;
57247;SDS011;55809;46.618;10.764;2023-07-24T06:58:30;9.98;;;4.82;;
57247;SDS011;55809;46.618;10.764;2023-07-24T07:00:59;9.02;;;4.82;;
57247;SDS011;55809;46.618;10.764;2023-07-24T07:03:28;11.82;;;4.75;;
57247;SDS011;55809;46.618;10.764;2023-07-24T07:05:58;10.27;;;5.28;;
57247;SDS011;55809;46.618;10.764;2023-07-24T07:08:27;10.70;;;4.53;;
57247;SDS011;55809;46.618;10.764;2023-07-24T07:11:03;11.38;;;4.20;;
57247;SDS011;55809;46.618;10.764;2023-07-24T07:13:31;8.50;;;4.55;;
57247;SDS011;55809;46.618;10.764;2023-07-24T07:16:00;9.43;;;4.65;;
57247;SDS011;55809;46.618;10.764;2023-07-24T07:18:27;7.80;;;3.65;;
57247;SDS011;55809;46.618;10.764;2023-07-24T07:20:55;12.18;;;5.40;;
57247;SDS011;55809;46.618;10.764;2023-07-24T07:23:31;8.10;;;3.53;;
57247;SDS011;55809;46.618;10.764;2023-07-24T07:26:02;8.75;;;4.30;;
57247;SDS011;55809;46.618;10.764;2023-07-24T07:28:29;11.98;;;4.88;;
57247;SDS011;55809;46.618;10.764;2023-07-24T07:30:59;9.40;;;3.92;;
57247;SDS011;55809;46.618;10.764;2023-07-24T07:33:29;9.18;;;4.47;;
57247;SDS011;55809;46.618;10.764;2023-07-24T07:36:00;9.63;;;4.20;;
57247;SDS011;55809;46.618;10.764;2023-07-24T07:38:29;10.77;;;4.53;;
57247;SDS011;55809;46.618;10.764;2023-07-24T07:41:03;10.90;;;4.38;;
57247;SDS011;55809;46.618;10.764;2023-07-24T07:43:32;8.35;;;4.25;;
57247;SDS011;55809;46.618;10.764;2023-07-24T07:46:00;12.90;;;5.28;;
57247;SDS011;55809;46.618;10.764;2023-07-24T07:48:30;10.53;;;4.73;;
57247;SDS011;55809;46.618;10.764;2023-07-24T07:50:59;10.70;;;4.70;;
57247;SDS011;55809;46.618;10.764;2023-07-24T07:53:27;10.52;;;4.63;;
57247;SDS011;55809;46.618;10.764;2023-07-24T07:55:57;11.90;;;5.00;;
57247;SDS011;55809;46.618;10.764;2023-07-24T07:58:34;9.63;;;4.25;;
57247;SDS011;55809;46.618;10.764;2023-07-24T08:01:03;10.02;;;4.68;;
57247;SDS011;55809;46.618;10.764;2023-07-24T08:03:32;11.85;;;5.18;;
57247;SDS011;55809;46.618;10.764;2023-07-24T08:05:59;11.32;;;4.60;;
57247;SDS011;55809;46.618;10.764;2023-07-24T08:08:26;11.75;;;4.85;;
57247;SDS011;55809;46.618;10.764;2023-07-24T08:10:56;9.20;;;4.13;;
57247;SDS011;55809;46.618;10.764;2023-07-24T08:13:28;8.32;;;4.60;;
57247;SDS011;55809;46.618;10.764;2023-07-24T08:15:57;9.95;;;4.30;;
57247;SDS011;55809;46.618;10.764;2023-07-24T08:18:29;10.75;;;4.72;;
57247;SDS011;55809;46.618;10.764;2023-07-24T08:21:05;9.57;;;4.45;;
57247;SDS011;55809;46.618;10.764;2023-07-24T08:23:32;9.48;;;4.72;;
57247;SDS011;55809;46.618;10.764;2023-07-24T08:25:59;8.40;;;4.43;;
57247;SDS011;55809;46.618;10.764;2023-07-24T08:28:29;11.32;;;5.18;;
57247;SDS011;55809;46.618;10.764;2023-07-24T08:30:59;8.88;;;4.78;;
57247;SDS011;55809;46.618;10.764;2023-07-24T08:33:27;13.77;;;5.38;;
57247;SDS011;55809;46.618;10.764;2023-07-24T08:35:59;10.23;;;4.97;;
57247;SDS011;55809;46.618;10.764;2023-07-24T08:38:30;9.27;;;4.85;;
57247;SDS011;55809;46.618;10.764;2023-07-24T08:41:01;14.10;;;5.68;;
57247;SDS011;55809;46.618;10.764;2023-07-24T08:43:35;9.85;;;5.45;;
57247;SDS011;55809;46.618;10.764;2023-07-24T08:46:05;11.07;;;4.53;;
57247;SDS011;55809;46.618;10.764;2023-07-24T08:48:34;8.80;;;3.77;;
57247;SDS011;55809;46.618;10.764;2023-07-24T08:51:05;11.02;;;5.32;;
57247;SDS011;55809;46.618;10.764;2023-07-24T08:53:35;10.15;;;4.90;;
57247;SDS011;55809;46.618;10.764;2023-07-24T08:56:06;9.40;;;4.57;;
57247;SDS011;55809;46.618;10.764;2023-07-24T08:58:47;9.07;;;4.38;;
57247;SDS011;55809;46.618;10.764;2023-07-24T09:01:20;11.00;;;5.00;;
57247;SDS011;55809;46.618;10.764;2023-07-24T09:03:50;10.50;;;5.75;;
57247;SDS011;55809;46.618;10.764;2023-07-24T09:06:17;9.85;;;4.18;;
57247;SDS011;55809;46.618;10.764;2023-07-24T09:08:45;10.15;;;5.15;;
57247;SDS011;55809;46.618;10.764;2023-07-24T09:13:48;12.70;;;5.32;;
57247;SDS011;55809;46.618;10.764;2023-07-24T09:16:23;10.10;;;5.55;;
57247;SDS011;55809;46.618;10.764;2023-07-24T09:18:53;10.40;;;4.93;;
57247;SDS011;55809;46.618;10.764;2023-07-24T09:21:29;11.23;;;4.55;;
57247;SDS011;55809;46.618;10.764;2023-07-24T09:24:08;8.32;;;4.70;;
57247;SDS011;55809;46.618;10.764;2023-07-24T09:26:46;11.57;;;5.93;;
57247;SDS011;55809;46.618;10.764;2023-07-24T09:29:16;10.20;;;5.80;;
57247;SDS011;55809;46.618;10.764;2023-07-24T09:31:45;11.80;;;5.38;;
57247;SDS011;55809;46.618;10.764;2023-07-24T09:34:16;12.32;;;5.50;;
57247;SDS011;55809;46.618;10.764;2023-07-24T09:36:44;10.27;;;5.32;;
57247;SDS011;55809;46.618;10.764;2023-07-24T09:39:12;12.85;;;5.47;;
57247;SDS011;55809;46.618;10.764;2023-07-24T09:41:40;13.55;;;5.85;;
57247;SDS011;55809;46.618;10.764;2023-07-24T09:44:07;10.65;;;5.57;;
57247;SDS011;55809;46.618;10.764;2023-07-24T09:49:20;9.60;;;5.32;;
57247;SDS011;55809;46.618;10.764;2023-07-24T09:51:51;11.25;;;6.32;;
57247;SDS011;55809;46.618;10.764;2023-07-24T09:54:23;11.50;;;5.22;;
57247;SDS011;55809;46.618;10.764;2023-07-24T09:56:57;12.63;;;5.85;;
57247;SDS011;55809;46.618;10.764;2023-07-24T09:59:26;10.13;;;5.47;;
57247;SDS011;55809;46.618;10.764;2023-07-24T10:01:57;14.77;;;6.80;;
57247;SDS011;55809;46.618;10.764;2023-07-24T10:04:28;10.20;;;5.97;;
57247;SDS011;55809;46.618;10.764;2023-07-24T10:06:57;11.18;;;5.68;;
57247;SDS011;55809;46.618;10.764;2023-07-24T10:09:24;9.55;;;5.40;;
57247;SDS011;55809;46.618;10.764;2023-07-24T10:11:52;10.70;;;5.20;;
57247;SDS011;55809;46.618;10.764;2023-07-24T10:14:20;9.23;;;5.03;;
57247;SDS011;55809;46.618;10.764;2023-07-24T10:16:49;13.30;;;5.35;;
57247;SDS011;55809;46.618;10.764;2023-07-24T10:19:23;10.52;;;4.95;;
57247;SDS011;55809;46.618;10.764;2023-07-24T10:21:51;11.15;;;5.32;;
57247;SDS011;55809;46.618;10.764;2023-07-24T10:24:20;11.55;;;5.40;;
57247;SDS011;55809;46.618;10.764;2023-07-24T10:26:56;9.82;;;5.25;;
57247;SDS011;55809;46.618;10.764;2023-07-24T10:29:24;10.48;;;4.57;;
57247;SDS011;55809;46.618;10.764;2023-07-24T10:31:55;12.20;;;5.60;;
57247;SDS011;55809;46.618;10.764;2023-07-24T10:34:24;8.25;;;4.22;;
57247;SDS011;55809;46.618;10.764;2023-07-24T10:37:06;9.32;;;4.82;;
57247;SDS011;55809;46.618;10.764;2023-07-24T10:39:39;9.65;;;4.68;;
57247;SDS011;55809;46.618;10.764;2023-07-24T10:42:07;8.60;;;4.10;;
57247;SDS011;55809;46.618;10.764;2023-07-24T10:44:36;9.85;;;4.95;;
57247;SDS011;55809;46.618;10.764;2023-07-24T10:47:04;11.02;;;4.25;;
57247;SDS011;55809;46.618;10.764;2023-07-24T10:49:33;10.55;;;5.20;;
57247;SDS011;55809;46.618;10.764;2023-07-24T10:52:00;9.83;;;4.50;;
57247;SDS011;55809;46.618;10.764;2023-07-24T10:54:27;12.27;;;5.20;;
57247;SDS011;55809;46.618;10.764;2023-07-24T10:56:58;9.85;;;5.25;;
57247;SDS011;55809;46.618;10.764;2023-07-24T10:59:35;8.93;;;3.83;;
57247;SDS011;55809;46.618;10.764;2023-07-24T11:02:03;7.88;;;4.10;;
57247;SDS011;55809;46.618;10.764;2023-07-24T11:04:32;8.10;;;4.28;;
57247;SDS011;55809;46.618;10.764;2023-07-24T11:07:00;7.78;;;4.10;;
57247;SDS011;55809;46.618;10.764;2023-07-24T11:09:34;7.60;;;3.80;;
57247;SDS011;55809;46.618;10.764;2023-07-24T11:12:09;9.52;;;4.25;;
57247;SDS011;55809;46.618;10.764;2023-07-24T11:14:45;7.80;;;3.65;;
57247;SDS011;55809;46.618;10.764;2023-07-24T11:17:13;8.57;;;3.90;;
57247;SDS011;55809;46.618;10.764;2023-07-24T11:19:42;8.55;;;4.50;;
57247;SDS011;55809;46.618;10.764;2023-07-24T11:22:09;10.48;;;5.07;;
57247;SDS011;55809;46.618;10.764;2023-07-24T11:24:45;9.30;;;4.03;;
57247;SDS011;55809;46.618;10.764;2023-07-24T11:27:13;9.52;;;4.68;;
57247;SDS011;55809;46.618;10.764;2023-07-24T11:29:41;8.93;;;4.88;;
57247;SDS011;55809;46.618;10.764;2023-07-24T11:32:08;9.52;;;5.15;;
57247;SDS011;55809;46.618;10.764;2023-07-24T11:34:35;9.68;;;5.13;;
57247;SDS011;55809;46.618;10.764;2023-07-24T11:37:05;12.40;;;4.70;;
57247;SDS011;55809;46.618;10.764;2023-07-24T11:39:33;13.10;;;5.45;;
57247;SDS011;55809;46.618;10.764;2023-07-24T11:42:00;11.65;;;4.88;;
57247;SDS011;55809;46.618;10.764;2023-07-24T11:44:28;8.75;;;4.53;;
57247;SDS011;55809;46.618;10.764;2023-07-24T11:47:00;11.63;;;5.45;;
57247;SDS011;55809;46.618;10.764;2023-07-24T11:49:28;10.45;;;4.65;;
57247;SDS011;55809;46.618;10.764;2023-07-24T11:52:01;8.93;;;4.32;;
57247;SDS011;55809;46.618;10.764;2023-07-24T11:54:35;9.30;;;4.95;;
57247;SDS011;55809;46.618;10.764;2023-07-24T11:57:04;11.77;;;5.15;;
57247;SDS011;55809;46.618;10.764;2023-07-24T11:59:41;10.13;;;4.93;;
57247;SDS011;55809;46.618;10.764;2023-07-24T12:02:09;10.73;;;5.07;;
57247;SDS011;55809;46.618;10.764;2023-07-24T12:04:37;10.63;;;4.50;;
57247;SDS011;55809;46.618;10.764;2023-07-24T12:07:07;8.57;;;4.65;;
57247;SDS011;55809;46.618;10.764;2023-07-24T12:09:36;10.80;;;5.18;;
57247;SDS011;55809;46.618;10.764;2023-07-24T12:12:03;9.65;;;4.75;;
57247;SDS011;55809;46.618;10.764;2023-07-24T12:14:31;10.75;;;4.60;;
57247;SDS011;55809;46.618;10.764;2023-07-24T12:17:01;12.13;;;5.22;;
57247;SDS011;55809;46.618;10.764;2023-07-24T12:19:28;8.85;;;4.38;;
57247;SDS011;55809;46.618;10.764;2023-07-24T12:21:56;11.15;;;5.47;;
57247;SDS011;55809;46.618;10.764;2023-07-24T12:24:23;11.40;;;5.90;;
57247;SDS011;55809;46.618;10.764;2023-07-24T12:26:51;10.10;;;5.38;;
57247;SDS011;55809;46.618;10.764;2023-07-24T12:29:19;10.90;;;6.60;;
57247;SDS011;55809;46.618;10.764;2023-07-24T12:31:46;11.13;;;5.57;;
57247;SDS011;55809;46.618;10.764;2023-07-24T12:34:13;8.25;;;4.43;;
57247;SDS011;55809;46.618;10.764;2023-07-24T12:36:41;10.75;;;5.10;;
57247;SDS011;55809;46.618;10.764;2023-07-24T12:39:10;12.60;;;5.10;;
57247;SDS011;55809;46.618;10.764;2023-07-24T12:41:37;11.38;;;5.25;;
57247;SDS011;55809;46.618;10.764;2023-07-24T12:44:07;10.73;;;5.05;;
57247;SDS011;55809;46.618;10.764;2023-07-24T12:49:03;12.70;;;4.60;;
57247;SDS011;55809;46.618;10.764;2023-07-24T12:51:32;9.95;;;4.68;;
57247;SDS011;55809;46.618;10.764;2023-07-24T12:54:00;12.43;;;5.25;;
57247;SDS011;55809;46.618;10.764;2023-07-24T12:56:27;9.73;;;5.32;;
57247;SDS011;55809;46.618;10.764;2023-07-24T12:58:56;9.85;;;4.57;;
57247;SDS011;55809;46.618;10.764;2023-07-24T13:01:24;14.68;;;5.95;;
57247;SDS011;55809;46.618;10.764;2023-07-24T13:03:53;12.90;;;5.20;;
57247;SDS011;55809;46.618;10.764;2023-07-24T13:06:22;12.23;;;5.00;;
57247;SDS011;55809;46.618;10.764;2023-07-24T13:08:50;10.75;;;5.10;;
57247;SDS011;55809;46.618;10.764;2023-07-24T13:13:49;8.23;;;4.82;;
57247;SDS011;55809;46.618;10.764;2023-07-24T13:16:16;8.93;;;4.85;;
57247;SDS011;55809;46.618;10.764;2023-07-24T13:18:46;12.13;;;4.82;;
57247;SDS011;55809;46.618;10.764;2023-07-24T13:21:13;11.25;;;5.95;;
57247;SDS011;55809;46.618;10.764;2023-07-24T13:23:41;11.07;;;5.15;;
57247;SDS011;55809;46.618;10.764;2023-07-24T13:26:11;9.30;;;4.70;;
57247;SDS011;55809;46.618;10.764;2023-07-24T13:28:41;10.85;;;5.03;;
57247;SDS011;55809;46.618;10.764;2023-07-24T13:31:14;12.07;;;5.13;;
57247;SDS011;55809;46.618;10.764;2023-07-24T13:33:42;12.02;;;4.88;;
57247;SDS011;55809;46.618;10.764;2023-07-24T13:36:13;11.30;;;5.28;;
57247;SDS011;55809;46.618;10.764;2023-07-24T13:38:44;11.57;;;5.85;;
57247;SDS011;55809;46.618;10.764;2023-07-24T13:41:11;9.80;;;5.40;;
57247;SDS011;55809;46.618;10.764;2023-07-24T13:43:39;10.70;;;4.75;;
57247;SDS011;55809;46.618;10.764;2023-07-24T13:46:07;11.23;;;4.88;;
57247;SDS011;55809;46.618;10.764;2023-07-24T13:48:34;11.40;;;5.68;;
57247;SDS011;55809;46.618;10.764;2023-07-24T13:51:01;9.70;;;5.63;;
57247;SDS011;55809;46.618;10.764;2023-07-24T13:53:31;11.48;;;5.38;;
57247;SDS011;55809;46.618;10.764;2023-07-24T13:58:28;10.57;;;4.75;;
57247;SDS011;55809;46.618;10.764;2023-07-24T14:00:58;10.80;;;5.45;;
57247;SDS011;55809;46.618;10.764;2023-07-24T14:03:25;10.77;;;5.32;;
57247;SDS011;55809;46.618;10.764;2023-07-24T14:05:56;12.13;;;5.90;;
57247;SDS011;55809;46.618;10.764;2023-07-24T14:08:23;12.00;;;5.93;;
57247;SDS011;55809;46.618;10.764;2023-07-24T14:10:54;13.35;;;5.70;;
57247;SDS011;55809;46.618;10.764;2023-07-24T14:13:21;10.57;;;5.43;;
57247;SDS011;55809;46.618;10.764;2023-07-24T14:15:50;10.52;;;5.57;;
57247;SDS011;55809;46.618;10.764;2023-07-24T14:18:18;15.68;;;6.70;;
57247;SDS011;55809;46.618;10.764;2023-07-24T14:20:47;16.77;;;6.65;;
57247;SDS011;55809;46.618;10.764;2023-07-24T14:23:16;11.15;;;6.13;;
57247;SDS011;55809;46.618;10.764;2023-07-24T14:25:46;12.20;;;5.60;;
57247;SDS011;55809;46.618;10.764;2023-07-24T14:28:14;11.85;;;5.68;;
57247;SDS011;55809;46.618;10.764;2023-07-24T14:30:42;10.10;;;5.00;;
57247;SDS011;55809;46.618;10.764;2023-07-24T14:33:09;10.32;;;4.95;;
57247;SDS011;55809;46.618;10.764;2023-07-24T14:35:36;13.05;;;4.95;;
57247;SDS011;55809;46.618;10.764;2023-07-24T14:38:07;8.38;;;4.30;;
57247;SDS011;55809;46.618;10.764;2023-07-24T14:40:35;11.85;;;4.63;;
57247;SDS011;55809;46.618;10.764;2023-07-24T14:43:03;10.60;;;4.90;;
57247;SDS011;55809;46.618;10.764;2023-07-24T14:45:35;14.52;;;6.10;;
57247;SDS011;55809;46.618;10.764;2023-07-24T14:48:02;11.38;;;6.05;;
57247;SDS011;55809;46.618;10.764;2023-07-24T14:50:30;13.57;;;6.35;;
57247;SDS011;55809;46.618;10.764;2023-07-24T14:52:57;12.50;;;6.20;;
57247;SDS011;55809;46.618;10.764;2023-07-24T14:55:24;11.18;;;5.88;;